createdAt,value
2023-05-09T00:00:54.882Z,11.43
2023-05-09T00:01:58.502Z,8.23
2023-05-09T00:03:02.902Z,8.63
2023-05-09T00:04:06.400Z,8.77
2023-05-09T00:05:10.042Z,7.77
2023-05-09T00:06:13.542Z,8.30
2023-05-09T00:07:15.941Z,8.53
2023-05-09T00:08:19.788Z,10.73
2023-05-09T00:09:22.176Z,8.30
2023-05-09T00:10:25.460Z,9.40
2023-05-09T00:11:28.038Z,7.90
2023-05-09T00:12:32.250Z,9.13
2023-05-09T00:13:35.527Z,10.20
2023-05-09T00:14:40.838Z,10.83
2023-05-09T00:15:44.606Z,10.13
2023-05-09T00:16:48.467Z,12.67
2023-05-09T00:17:50.954Z,8.70
2023-05-09T00:18:54.468Z,10.33
2023-05-09T00:19:56.845Z,9.00
2023-05-09T00:21:03.160Z,11.80
2023-05-09T00:22:05.593Z,10.63
2023-05-09T00:23:08.992Z,8.70
2023-05-09T00:24:11.945Z,9.00
2023-05-09T00:25:15.627Z,9.17
2023-05-09T00:26:18.204Z,8.40
2023-05-09T00:27:21.561Z,9.60
2023-05-09T00:28:23.900Z,10.53
2023-05-09T00:29:27.333Z,8.50
2023-05-09T00:30:29.795Z,8.30
2023-05-09T00:31:34.520Z,9.17
2023-05-09T00:32:37.227Z,7.97
2023-05-09T00:33:40.660Z,12.10
2023-05-09T00:34:43.693Z,8.30
2023-05-09T00:35:47.120Z,8.13
2023-05-09T00:36:50.754Z,9.10
2023-05-09T00:37:54.239Z,7.83
2023-05-09T00:38:56.572Z,9.43
2023-05-09T00:40:00.621Z,7.90
2023-05-09T00:41:03.170Z,8.23
2023-05-09T00:42:06.747Z,7.53
2023-05-09T00:43:09.198Z,7.27
2023-05-09T00:44:12.520Z,7.73
2023-05-09T00:45:15.645Z,9.80
2023-05-09T00:46:19.398Z,8.33
2023-05-09T00:47:24.117Z,6.97
2023-05-09T00:48:27.543Z,8.43
2023-05-09T00:49:30.104Z,11.33
2023-05-09T00:50:34.208Z,8.17
2023-05-09T00:51:37.235Z,11.83
2023-05-09T00:52:40.736Z,7.73
2023-05-09T00:53:43.160Z,7.87
2023-05-09T00:54:46.442Z,7.73
2023-05-09T00:55:49.205Z,7.70
2023-05-09T00:56:53.088Z,7.73
2023-05-09T00:57:55.479Z,8.20
2023-05-09T00:58:58.897Z,7.57
2023-05-09T01:00:01.984Z,7.13
2023-05-09T01:01:06.751Z,8.10
2023-05-09T01:02:09.196Z,6.77
2023-05-09T01:03:14.074Z,10.90
2023-05-09T01:04:17.124Z,8.47
2023-05-09T01:05:21.343Z,7.27
2023-05-09T01:06:39.764Z,6.70
2023-05-09T01:07:50.947Z,7.43
2023-05-09T01:08:59.975Z,7.15
2023-05-09T01:10:10.435Z,7.60
2023-05-09T01:11:23.035Z,9.10
2023-05-09T01:12:36.666Z,9.43
2023-05-09T01:13:50.493Z,8.17
2023-05-09T01:15:09.859Z,7.10
2023-05-09T01:16:20.755Z,7.10
2023-05-09T01:17:35.788Z,6.93
2023-05-09T01:18:46.177Z,7.80
2023-05-09T01:20:00.826Z,7.53
2023-05-09T01:21:08.919Z,6.67
2023-05-09T01:22:16.365Z,6.23
2023-05-09T01:23:40.218Z,6.57
2023-05-09T01:25:20.871Z,9.10
2023-05-09T01:26:35.176Z,13.73
2023-05-09T01:27:49.716Z,7.67
2023-05-09T01:29:18.194Z,7.53
2023-05-09T01:30:22.156Z,8.80
2023-05-09T01:31:25.951Z,10.33
2023-05-09T01:32:31.763Z,10.33
2023-05-09T01:33:38.738Z,6.93
2023-05-09T01:34:44.882Z,7.10
2023-05-09T01:35:54.419Z,8.00
2023-05-09T01:36:59.800Z,9.83
2023-05-09T01:38:05.999Z,7.30
2023-05-09T01:39:13.713Z,9.07
2023-05-09T01:40:20.350Z,8.07
2023-05-09T01:41:24.144Z,7.70
2023-05-09T01:42:32.174Z,9.77
2023-05-09T01:43:36.364Z,8.80
2023-05-09T01:44:43.795Z,8.43
2023-05-09T01:45:48.342Z,9.47
2023-05-09T01:46:54.066Z,9.40
2023-05-09T01:47:58.336Z,8.73
2023-05-09T01:49:02.510Z,8.33
2023-05-09T01:50:07.344Z,9.40
2023-05-09T01:51:12.414Z,8.37
2023-05-09T01:52:17.886Z,7.50
2023-05-09T01:53:23.291Z,12.00
2023-05-09T01:54:26.930Z,9.07
2023-05-09T01:55:35.704Z,8.33
2023-05-09T01:56:41.064Z,7.47
2023-05-09T01:57:45.186Z,9.80
2023-05-09T01:58:50.170Z,8.73
2023-05-09T01:59:56.623Z,8.93
2023-05-09T02:01:01.242Z,8.40
2023-05-09T02:02:05.867Z,8.47
2023-05-09T02:03:09.166Z,9.67
2023-05-09T02:04:14.047Z,8.23
2023-05-09T02:05:18.653Z,10.70
2023-05-09T02:06:24.904Z,9.70
2023-05-09T02:07:30.055Z,8.73
2023-05-09T02:08:34.390Z,9.00
2023-05-09T02:09:36.920Z,14.17
2023-05-09T02:10:40.908Z,11.63
2023-05-09T02:11:43.893Z,8.83
2023-05-09T02:12:47.259Z,8.00
2023-05-09T02:13:50.836Z,8.60
2023-05-09T02:14:55.728Z,8.90
2023-05-09T02:15:58.545Z,9.10
2023-05-09T02:17:06.477Z,8.40
2023-05-09T02:18:09.245Z,10.70
2023-05-09T02:19:12.610Z,9.57
2023-05-09T02:20:15.124Z,8.73
2023-05-09T02:21:18.600Z,8.40
2023-05-09T02:22:21.100Z,10.10
2023-05-09T02:23:24.456Z,9.60
2023-05-09T02:24:26.910Z,9.38
2023-05-09T02:25:30.838Z,11.13
2023-05-09T02:26:34.650Z,12.00
2023-05-09T02:27:40.836Z,8.10
2023-05-09T02:28:45.776Z,10.40
2023-05-09T02:29:52.099Z,8.73
2023-05-09T02:30:57.297Z,9.63
2023-05-09T02:32:02.661Z,7.40
2023-05-09T02:33:08.033Z,8.50
2023-05-09T02:34:13.113Z,8.93
2023-05-09T02:35:17.571Z,9.13
2023-05-09T02:36:22.032Z,9.00
2023-05-09T02:37:26.058Z,9.47
2023-05-09T02:38:29.926Z,10.10
2023-05-09T02:39:32.686Z,8.70
2023-05-09T02:40:36.679Z,12.20
2023-05-09T02:41:39.297Z,10.20
2023-05-09T02:42:42.863Z,10.07
2023-05-09T02:43:46.061Z,10.37
2023-05-09T02:44:49.535Z,8.30
2023-05-09T02:45:52.133Z,9.20
2023-05-09T02:46:56.814Z,8.47
2023-05-09T02:47:59.281Z,8.80
2023-05-09T02:49:03.500Z,9.70
2023-05-09T02:50:07.129Z,9.37
2023-05-09T02:51:10.554Z,13.03
2023-05-09T02:52:12.984Z,9.67
2023-05-09T02:53:16.404Z,9.77
2023-05-09T02:54:18.830Z,10.27
2023-05-09T02:55:22.110Z,8.57
2023-05-09T02:56:24.498Z,11.33
2023-05-09T02:57:27.845Z,11.88
2023-05-09T02:58:30.267Z,12.90
2023-05-09T02:59:34.058Z,10.93
2023-05-09T03:00:40.428Z,9.47
2023-05-09T03:01:50.695Z,9.13
2023-05-09T03:03:04.074Z,15.50
2023-05-09T03:04:15.028Z,11.13
2023-05-09T03:05:19.022Z,11.83
2023-05-09T03:06:22.398Z,9.60
2023-05-09T03:07:24.780Z,11.87
2023-05-09T03:08:28.107Z,12.90
2023-05-09T03:09:30.522Z,9.73
2023-05-09T03:10:33.922Z,15.70
2023-05-09T03:11:36.924Z,11.03
2023-05-09T03:12:43.859Z,11.07
2023-05-09T03:13:46.366Z,15.77
2023-05-09T03:14:49.750Z,11.10
2023-05-09T03:15:53.652Z,10.75
2023-05-09T03:16:55.984Z,11.97
2023-05-09T03:18:00.767Z,10.70
2023-05-09T03:19:03.271Z,11.63
2023-05-09T03:20:10.465Z,12.20
2023-05-09T03:21:14.790Z,13.03
2023-05-09T03:22:17.166Z,11.30
2023-05-09T03:23:20.565Z,11.77
2023-05-09T03:24:23.382Z,11.82
2023-05-09T03:25:27.350Z,11.07
2023-05-09T03:26:30.270Z,14.85
2023-05-09T03:27:33.575Z,12.33
2023-05-09T03:28:35.951Z,12.40
2023-05-09T03:29:39.232Z,13.07
2023-05-09T03:30:41.588Z,13.10
2023-05-09T03:31:45.553Z,14.77
2023-05-09T03:32:48.048Z,13.10
2023-05-09T03:33:52.777Z,12.77
2023-05-09T03:34:55.183Z,13.17
2023-05-09T03:35:58.724Z,31.23
2023-05-09T03:37:02.776Z,12.47
2023-05-09T03:38:06.326Z,12.57
2023-05-09T03:39:09.102Z,12.13
2023-05-09T03:40:13.110Z,10.53
2023-05-09T03:41:17.384Z,11.60
2023-05-09T03:42:22.079Z,12.47
2023-05-09T03:43:24.440Z,11.77
2023-05-09T03:44:27.813Z,12.10
2023-05-09T03:45:30.578Z,13.13
2023-05-09T03:46:34.013Z,12.00
2023-05-09T03:47:36.569Z,14.43
2023-05-09T03:48:39.851Z,10.90
2023-05-09T03:49:43.610Z,15.07
2023-05-09T03:50:46.902Z,13.80
2023-05-09T03:51:49.430Z,11.23
2023-05-09T03:52:52.753Z,12.03
2023-05-09T03:53:55.482Z,12.17
2023-05-09T03:54:59.358Z,10.60
2023-05-09T03:56:02.411Z,13.63
2023-05-09T03:57:05.834Z,11.30
2023-05-09T03:58:08.246Z,12.93
2023-05-09T03:59:11.592Z,11.23
2023-05-09T04:00:14.402Z,10.97
2023-05-09T04:01:19.996Z,10.60
2023-05-09T04:02:23.103Z,11.07
2023-05-09T04:03:27.132Z,14.03
2023-05-09T04:04:29.916Z,9.77
2023-05-09T04:05:35.478Z,11.07
2023-05-09T04:06:38.661Z,10.13
2023-05-09T04:07:42.399Z,10.67
2023-05-09T04:08:44.846Z,11.27
2023-05-09T04:09:49.606Z,10.90
2023-05-09T04:10:52.562Z,11.60
2023-05-09T04:11:56.157Z,12.27
2023-05-09T04:12:58.852Z,10.80
2023-05-09T04:14:03.313Z,12.30
2023-05-09T04:15:07.902Z,11.27
2023-05-09T04:16:11.193Z,10.73
2023-05-09T04:17:14.262Z,11.77
2023-05-09T04:18:17.712Z,11.03
2023-05-09T04:19:20.191Z,10.15
2023-05-09T04:20:23.730Z,9.97
2023-05-09T04:21:27.628Z,9.93
2023-05-09T04:22:31.809Z,10.70
2023-05-09T04:23:34.233Z,10.10
2023-05-09T04:24:38.197Z,13.37
2023-05-09T04:25:41.152Z,9.87
2023-05-09T04:26:44.549Z,8.40
2023-05-09T04:27:47.589Z,9.27
2023-05-09T04:28:50.953Z,13.70
2023-05-09T04:29:53.894Z,9.53
2023-05-09T04:30:57.381Z,8.07
2023-05-09T04:32:00.049Z,7.63
2023-05-09T04:33:03.645Z,7.60
2023-05-09T04:34:06.636Z,8.17
2023-05-09T04:35:10.444Z,8.10
2023-05-09T04:36:12.834Z,8.03
2023-05-09T04:37:17.743Z,8.53
2023-05-09T04:38:20.285Z,8.83
2023-05-09T04:39:23.687Z,7.33
2023-05-09T04:40:27.037Z,8.03
2023-05-09T04:41:31.049Z,8.30
2023-05-09T04:42:33.970Z,7.40
2023-05-09T04:43:37.314Z,7.70
2023-05-09T04:44:39.952Z,10.17
2023-05-09T04:45:43.347Z,8.30
2023-05-09T04:46:45.919Z,8.67
2023-05-09T04:47:49.491Z,8.23
2023-05-09T04:48:51.900Z,8.33
2023-05-09T04:49:55.277Z,7.47
2023-05-09T04:50:57.734Z,9.40
2023-05-09T04:52:01.185Z,9.40
2023-05-09T04:53:05.044Z,7.57
2023-05-09T04:54:09.246Z,9.40
2023-05-09T04:55:11.687Z,9.83
2023-05-09T04:56:15.096Z,7.70
2023-05-09T04:57:18.784Z,8.33
2023-05-09T04:58:22.550Z,11.17
2023-05-09T04:59:25.554Z,8.50
2023-05-09T05:00:28.955Z,12.50
2023-05-09T05:01:31.413Z,8.20
2023-05-09T05:02:34.792Z,9.13
2023-05-09T05:03:37.176Z,9.63
2023-05-09T05:04:41.168Z,7.03
2023-05-09T05:05:44.013Z,6.93
2023-05-09T05:06:47.304Z,7.97
2023-05-09T05:07:49.675Z,8.30
2023-05-09T05:08:54.338Z,7.30
2023-05-09T05:09:56.766Z,7.03
2023-05-09T05:11:00.188Z,11.53
2023-05-09T05:12:04.179Z,7.77
2023-05-09T05:13:08.279Z,6.97
2023-05-09T05:14:10.665Z,7.20
2023-05-09T05:15:15.300Z,8.90
2023-05-09T05:16:17.847Z,8.17
2023-05-09T05:17:21.902Z,8.77
2023-05-09T05:18:24.362Z,6.37
2023-05-09T05:19:27.856Z,9.20
2023-05-09T05:20:30.378Z,10.90
2023-05-09T05:21:34.445Z,6.87
2023-05-09T05:22:37.121Z,6.40
2023-05-09T05:23:40.571Z,6.40
2023-05-09T05:24:44.439Z,6.60
2023-05-09T05:25:47.857Z,6.13
2023-05-09T05:26:50.355Z,7.57
2023-05-09T05:27:53.724Z,6.60
2023-05-09T05:28:57.266Z,5.63
2023-05-09T05:30:00.877Z,5.87
2023-05-09T05:31:03.350Z,5.67
2023-05-09T05:32:06.770Z,5.67
2023-05-09T05:33:09.351Z,9.00
2023-05-09T05:34:12.844Z,6.20
2023-05-09T05:35:16.193Z,5.70
2023-05-09T05:36:19.942Z,7.63
2023-05-09T05:37:22.407Z,6.80
2023-05-09T05:38:25.784Z,6.57
2023-05-09T05:39:28.184Z,5.67
2023-05-09T05:40:33.441Z,10.30
2023-05-09T05:41:35.779Z,6.20
2023-05-09T05:42:39.578Z,5.77
2023-05-09T05:43:42.047Z,5.47
2023-05-09T05:44:45.437Z,5.13
2023-05-09T05:45:48.031Z,6.87
2023-05-09T05:46:51.370Z,7.03
2023-05-09T05:47:56.327Z,5.60
2023-05-09T05:48:58.800Z,5.40
2023-05-09T05:50:02.666Z,5.20
2023-05-09T05:51:05.127Z,5.60
2023-05-09T05:52:08.557Z,5.63
2023-05-09T05:53:11.994Z,7.47
2023-05-09T05:54:14.359Z,6.70
2023-05-09T05:55:18.020Z,5.63
2023-05-09T05:56:22.842Z,5.23
2023-05-09T05:57:26.195Z,6.40
2023-05-09T05:58:28.628Z,8.20
2023-05-09T05:59:31.959Z,5.50
2023-05-09T06:00:35.383Z,6.17
2023-05-09T06:01:37.788Z,6.27
2023-05-09T06:02:44.622Z,5.90
2023-05-09T06:03:49.920Z,4.90
2023-05-09T06:04:53.963Z,4.77
2023-05-09T06:05:59.244Z,6.43
2023-05-09T06:07:02.594Z,6.77
2023-05-09T06:08:06.249Z,7.33
2023-05-09T06:09:08.740Z,4.77
2023-05-09T06:10:12.372Z,6.10
2023-05-09T06:11:14.795Z,5.07
2023-05-09T06:12:19.523Z,5.60
2023-05-09T06:13:22.891Z,4.63
2023-05-09T06:14:25.458Z,6.20
2023-05-09T06:15:28.829Z,4.60
2023-05-09T06:16:31.450Z,5.17
2023-05-09T06:17:35.454Z,4.93
2023-05-09T06:18:40.272Z,5.20
2023-05-09T06:19:43.841Z,4.70
2023-05-09T06:20:46.200Z,4.97
2023-05-09T06:21:49.486Z,5.47
2023-05-09T06:22:52.546Z,5.23
2023-05-09T06:24:05.736Z,4.53
2023-05-09T06:25:13.644Z,4.83
2023-05-09T06:26:16.241Z,5.37
2023-05-09T06:27:21.121Z,5.20
2023-05-09T06:28:23.993Z,5.40
2023-05-09T06:29:27.391Z,5.27
2023-05-09T06:30:29.855Z,4.70
2023-05-09T06:31:33.256Z,5.23
2023-05-09T06:32:35.766Z,6.47
2023-05-09T06:33:39.462Z,5.80
2023-05-09T06:34:42.459Z,5.63
2023-05-09T06:35:46.076Z,4.97
2023-05-09T06:36:49.425Z,4.40
2023-05-09T06:37:51.832Z,5.33
2023-05-09T06:38:55.202Z,5.17
2023-05-09T06:39:58.583Z,4.47
2023-05-09T06:41:00.954Z,5.40
2023-05-09T06:42:04.476Z,4.97
2023-05-09T06:43:08.235Z,5.10
2023-05-09T06:44:11.637Z,4.93
2023-05-09T06:45:14.715Z,5.63
2023-05-09T06:46:18.490Z,4.67
2023-05-09T06:47:20.878Z,5.10
2023-05-09T06:48:24.911Z,4.70
2023-05-09T06:49:27.910Z,5.00
2023-05-09T06:50:32.910Z,10.23
2023-05-09T06:51:36.875Z,4.30
2023-05-09T06:52:39.381Z,4.50
2023-05-09T06:53:42.696Z,6.83
2023-05-09T06:54:45.229Z,4.20
2023-05-09T06:55:49.279Z,4.63
2023-05-09T06:56:51.713Z,4.70
2023-05-09T06:57:55.069Z,5.00
2023-05-09T06:58:58.802Z,4.57
2023-05-09T07:00:03.045Z,4.73
2023-05-09T07:01:05.884Z,4.50
2023-05-09T07:02:09.294Z,5.10
2023-05-09T07:03:12.022Z,5.10
2023-05-09T07:04:15.568Z,5.07
2023-05-09T07:05:18.755Z,5.53
2023-05-09T07:06:22.122Z,6.73
2023-05-09T07:07:24.947Z,4.00
2023-05-09T07:08:28.720Z,4.80
2023-05-09T07:09:32.036Z,4.60
2023-05-09T07:10:35.487Z,6.50
2023-05-09T07:11:38.016Z,3.30
2023-05-09T07:12:41.722Z,4.60
2023-05-09T07:13:45.247Z,4.20
2023-05-09T07:14:48.935Z,4.13
2023-05-09T07:15:52.924Z,4.23
2023-05-09T07:17:05.159Z,5.50
2023-05-09T07:18:13.747Z,4.00
2023-05-09T07:19:16.150Z,5.50
2023-05-09T07:20:19.688Z,4.17
2023-05-09T07:21:22.660Z,3.90
2023-05-09T07:22:26.068Z,4.60
2023-05-09T07:23:28.589Z,5.23
2023-05-09T07:24:31.962Z,4.63
2023-05-09T07:25:34.435Z,7.87
2023-05-09T07:26:37.911Z,5.10
2023-05-09T07:27:41.332Z,5.47
2023-05-09T07:28:43.748Z,5.30
2023-05-09T07:29:49.162Z,5.00
2023-05-09T07:30:53.174Z,8.60
2023-05-09T07:31:57.196Z,6.50
2023-05-09T07:32:59.676Z,6.03
2023-05-09T07:34:03.010Z,5.13
2023-05-09T07:35:06.394Z,14.53
2023-05-09T07:36:13.174Z,6.90
2023-05-09T07:37:16.501Z,5.33
2023-05-09T07:38:20.031Z,12.00
2023-05-09T07:39:22.438Z,4.70
2023-05-09T07:40:25.880Z,5.73
2023-05-09T07:41:28.335Z,4.93
2023-05-09T07:42:32.860Z,4.50
2023-05-09T07:43:35.494Z,9.10
2023-05-09T07:44:38.786Z,4.27
2023-05-09T07:45:41.455Z,5.97
2023-05-09T07:46:46.257Z,5.50
2023-05-09T07:47:49.688Z,9.03
2023-05-09T07:48:53.092Z,6.50
2023-05-09T07:49:55.496Z,4.20
2023-05-09T07:50:58.955Z,5.13
2023-05-09T07:52:01.366Z,4.00
2023-05-09T07:53:05.297Z,4.37
2023-05-09T07:54:10.145Z,6.33
2023-05-09T07:55:13.809Z,4.97
2023-05-09T07:56:17.473Z,4.03
2023-05-09T07:57:19.871Z,4.43
2023-05-09T07:58:23.453Z,3.80
2023-05-09T07:59:25.952Z,5.00
2023-05-09T08:00:29.338Z,4.03
2023-05-09T08:01:31.876Z,5.53
2023-05-09T08:02:36.718Z,5.23
2023-05-09T08:03:39.246Z,3.30
2023-05-09T08:04:42.842Z,4.67
2023-05-09T08:05:46.158Z,4.90
2023-05-09T08:06:49.026Z,3.73
2023-05-09T08:07:52.370Z,3.00
2023-05-09T08:08:55.753Z,3.60
2023-05-09T08:09:59.128Z,3.70
2023-05-09T08:11:02.508Z,3.17
2023-05-09T08:12:06.541Z,4.53
2023-05-09T08:13:09.132Z,3.40
2023-05-09T08:14:13.794Z,3.37
2023-05-09T08:15:17.734Z,4.00
2023-05-09T08:16:21.330Z,5.53
2023-05-09T08:17:23.804Z,3.80
2023-05-09T08:18:28.520Z,4.10
2023-05-09T08:19:31.879Z,3.83
2023-05-09T08:20:36.348Z,3.30
2023-05-09T08:21:39.828Z,3.87
2023-05-09T08:22:42.684Z,3.83
2023-05-09T08:23:46.691Z,3.47
2023-05-09T08:24:49.190Z,3.40
2023-05-09T08:25:54.493Z,4.47
2023-05-09T08:26:56.898Z,4.30
2023-05-09T08:28:00.398Z,5.80
2023-05-09T08:29:03.184Z,3.90
2023-05-09T08:30:07.946Z,3.60
2023-05-09T08:31:10.600Z,7.30
2023-05-09T08:32:14.411Z,3.93
2023-05-09T08:33:16.874Z,3.63
2023-05-09T08:34:22.691Z,3.17
2023-05-09T08:35:26.037Z,2.83
2023-05-09T08:36:29.407Z,3.60
2023-05-09T08:37:31.858Z,3.33
2023-05-09T08:38:36.455Z,3.70
2023-05-09T08:39:39.918Z,3.77
2023-05-09T08:40:43.381Z,3.37
2023-05-09T08:41:47.453Z,3.20
2023-05-09T08:42:52.105Z,3.43
2023-05-09T08:43:55.634Z,3.73
2023-05-09T08:44:58.894Z,3.47
2023-05-09T08:46:08.136Z,3.33
2023-05-09T08:47:11.539Z,3.13
2023-05-09T08:48:17.181Z,2.80
2023-05-09T08:49:21.725Z,3.00
2023-05-09T08:50:26.049Z,3.70
2023-05-09T08:51:32.323Z,4.53
2023-05-09T08:52:36.423Z,2.70
2023-05-09T08:53:40.580Z,3.00
2023-05-09T08:54:43.441Z,3.50
2023-05-09T08:55:47.168Z,2.90
2023-05-09T08:56:50.206Z,2.80
2023-05-09T08:57:54.222Z,3.60
2023-05-09T08:58:57.885Z,3.73
2023-05-09T09:00:01.410Z,3.13
2023-05-09T09:01:09.128Z,3.37
2023-05-09T09:02:14.610Z,3.03
2023-05-09T09:03:18.764Z,2.50
2023-05-09T09:04:22.951Z,3.73
2023-05-09T09:05:40.633Z,3.20
2023-05-09T09:06:44.785Z,3.50
2023-05-09T09:07:47.656Z,3.30
2023-05-09T09:08:52.237Z,3.67
2023-05-09T09:09:57.024Z,3.03
2023-05-09T09:10:59.562Z,3.17
2023-05-09T09:12:04.676Z,5.70
2023-05-09T09:13:10.104Z,4.03
2023-05-09T09:14:16.930Z,2.93
2023-05-09T09:15:24.264Z,2.90
2023-05-09T09:16:31.507Z,3.10
2023-05-09T09:17:37.742Z,3.23
2023-05-09T09:18:41.326Z,3.83
2023-05-09T09:19:50.015Z,3.87
2023-05-09T09:20:58.828Z,3.37
2023-05-09T09:22:05.743Z,5.00
2023-05-09T09:23:11.711Z,3.10
2023-05-09T09:24:23.977Z,2.90
2023-05-09T09:25:27.399Z,4.03
2023-05-09T09:26:31.947Z,3.50
2023-05-09T09:27:35.668Z,3.20
2023-05-09T09:28:38.095Z,2.90
2023-05-09T09:29:41.554Z,3.03
2023-05-09T09:30:44.880Z,3.30
2023-05-09T09:31:49.458Z,2.80
2023-05-09T09:32:52.720Z,3.10
2023-05-09T09:34:01.570Z,2.90
2023-05-09T09:35:11.078Z,3.40
2023-05-09T09:36:13.571Z,3.27
2023-05-09T09:37:24.299Z,3.10
2023-05-09T09:38:28.039Z,3.10
2023-05-09T09:39:30.390Z,3.37
2023-05-09T09:40:33.770Z,4.90
2023-05-09T09:41:39.028Z,3.20
2023-05-09T09:42:43.015Z,2.83
2023-05-09T09:43:48.284Z,3.50
2023-05-09T09:44:57.239Z,3.67
2023-05-09T09:46:02.741Z,6.70
2023-05-09T09:47:10.126Z,3.33
2023-05-09T09:48:13.639Z,3.30
2023-05-09T09:49:18.513Z,3.67
2023-05-09T09:50:25.582Z,5.23
2023-05-09T09:51:30.160Z,3.73
2023-05-09T09:52:32.580Z,2.87
2023-05-09T09:53:40.866Z,3.70
2023-05-09T09:54:43.522Z,3.23
2023-05-09T09:55:52.122Z,3.57
2023-05-09T09:56:57.032Z,3.40
2023-05-09T09:58:00.782Z,3.57
2023-05-09T09:59:11.749Z,3.00
2023-05-09T10:00:18.742Z,3.40
2023-05-09T10:01:25.341Z,3.30
2023-05-09T10:02:29.543Z,3.10
2023-05-09T10:03:36.856Z,3.53
2023-05-09T10:04:42.767Z,3.20
2023-05-09T10:05:46.934Z,3.53
2023-05-09T10:06:58.672Z,3.00
2023-05-09T10:08:04.263Z,3.30
2023-05-09T10:09:07.670Z,3.50
2023-05-09T10:10:11.439Z,3.80
2023-05-09T10:11:15.853Z,4.10
2023-05-09T10:12:20.847Z,3.40
2023-05-09T10:13:24.373Z,5.77
2023-05-09T10:14:27.958Z,4.73
2023-05-09T10:15:41.527Z,3.93
2023-05-09T10:16:50.176Z,5.50
2023-05-09T10:17:58.211Z,4.23
2023-05-09T10:19:01.737Z,4.03
2023-05-09T10:20:06.078Z,3.63
2023-05-09T10:21:15.942Z,4.60
2023-05-09T10:22:20.588Z,4.13
2023-05-09T10:23:25.427Z,4.43
2023-05-09T10:24:31.991Z,3.50
2023-05-09T10:25:45.775Z,3.77
2023-05-09T10:26:53.413Z,3.80
2023-05-09T10:28:02.612Z,4.50
2023-05-09T10:29:11.986Z,5.80
2023-05-09T10:30:20.274Z,3.50
2023-05-09T10:31:27.023Z,3.60
2023-05-09T10:32:54.018Z,3.57
2023-05-09T10:33:57.792Z,5.60
2023-05-09T10:35:07.027Z,4.33
2023-05-09T10:36:13.264Z,6.67
2023-05-09T10:37:17.108Z,4.07
2023-05-09T10:38:21.871Z,4.03
2023-05-09T10:39:26.286Z,3.97
2023-05-09T10:40:30.104Z,3.70
2023-05-09T10:41:34.167Z,4.53
2023-05-09T10:42:37.478Z,3.60
2023-05-09T10:43:41.498Z,4.00
2023-05-09T10:44:45.224Z,5.13
2023-05-09T10:45:49.252Z,5.77
2023-05-09T10:46:52.059Z,4.70
2023-05-09T10:47:57.110Z,6.23
2023-05-09T10:49:00.917Z,4.13
2023-05-09T10:50:04.939Z,8.30
2023-05-09T10:51:10.478Z,5.93
2023-05-09T10:52:14.792Z,4.63
2023-05-09T10:53:18.459Z,8.00
2023-05-09T10:54:31.088Z,6.23
2023-05-09T10:55:37.837Z,4.57
2023-05-09T10:56:41.281Z,4.57
2023-05-09T10:57:55.236Z,3.73
2023-05-09T10:58:58.052Z,4.50
2023-05-09T11:00:02.154Z,4.00
2023-05-09T11:01:07.268Z,6.27
2023-05-09T11:02:14.982Z,4.60
2023-05-09T11:03:19.484Z,4.17
2023-05-09T11:04:22.884Z,8.50
2023-05-09T11:05:27.095Z,6.07
2023-05-09T11:06:45.699Z,5.60
2023-05-09T11:08:19.962Z,5.10
2023-05-09T11:09:28.756Z,4.63
2023-05-09T11:10:44.146Z,3.97
2023-05-09T11:11:53.108Z,7.10
2023-05-09T11:12:58.338Z,4.03
2023-05-09T11:14:01.036Z,3.73
2023-05-09T11:15:09.157Z,4.67
2023-05-09T11:16:13.591Z,4.03
2023-05-09T11:17:31.832Z,4.67
2023-05-09T11:18:34.306Z,4.40
2023-05-09T11:19:40.066Z,3.77
2023-05-09T11:20:49.748Z,4.30
2023-05-09T11:22:02.428Z,3.70
2023-05-09T11:23:12.451Z,3.83
2023-05-09T11:24:17.345Z,3.67
2023-05-09T11:25:28.543Z,4.10
2023-05-09T11:26:33.960Z,11.60
2023-05-09T11:27:40.931Z,3.50
2023-05-09T11:28:54.964Z,4.40
2023-05-09T11:29:59.582Z,4.37
2023-05-09T11:31:13.264Z,6.10
2023-05-09T11:32:17.157Z,4.30
2023-05-09T11:33:24.068Z,4.90
2023-05-09T11:34:28.892Z,4.30
2023-05-09T11:35:34.352Z,4.90
2023-05-09T11:36:38.595Z,5.43
2023-05-09T11:37:47.296Z,7.80
2023-05-09T11:39:02.237Z,6.17
2023-05-09T11:40:06.775Z,4.93
2023-05-09T11:41:09.698Z,5.97
2023-05-09T11:42:13.351Z,4.93
2023-05-09T11:43:22.030Z,9.37
2023-05-09T11:44:28.177Z,4.43
2023-05-09T11:45:34.473Z,11.10
2023-05-09T11:46:37.642Z,4.07
2023-05-09T11:47:41.870Z,4.63
2023-05-09T11:48:45.500Z,4.63
2023-05-09T11:49:48.964Z,5.07
2023-05-09T11:50:52.407Z,4.10
2023-05-09T11:51:54.828Z,5.17
2023-05-09T11:52:58.593Z,5.23
2023-05-09T11:54:04.716Z,6.10
2023-05-09T11:55:12.045Z,4.77
2023-05-09T11:56:16.031Z,4.73
2023-05-09T11:57:19.602Z,5.13
2023-05-09T11:58:22.019Z,5.20
2023-05-09T11:59:26.013Z,6.73
2023-05-09T12:00:29.470Z,4.83
2023-05-09T12:01:32.223Z,4.93
2023-05-09T12:02:36.051Z,5.17
2023-05-09T12:03:43.401Z,5.87
2023-05-09T12:04:47.245Z,4.97
2023-05-09T12:05:51.051Z,4.17
2023-05-09T12:06:53.597Z,4.57
2023-05-09T12:07:57.982Z,6.37
2023-05-09T12:09:01.785Z,4.10
2023-05-09T12:10:07.508Z,5.40
2023-05-09T12:11:10.739Z,6.60
2023-05-09T12:12:14.944Z,4.23
2023-05-09T12:13:20.118Z,5.60
2023-05-09T12:14:31.133Z,4.43
2023-05-09T12:15:38.878Z,5.00
2023-05-09T12:16:46.501Z,4.50
2023-05-09T12:18:03.371Z,5.00
2023-05-09T12:19:06.319Z,4.23
2023-05-09T12:20:10.970Z,4.80
2023-05-09T12:21:14.731Z,6.20
2023-05-09T12:22:18.165Z,4.00
2023-05-09T12:23:21.712Z,6.03
2023-05-09T12:24:28.393Z,4.07
2023-05-09T12:25:31.801Z,7.10
2023-05-09T12:26:34.278Z,4.33
2023-05-09T12:27:39.136Z,4.40
2023-05-09T12:28:43.000Z,4.90
2023-05-09T12:29:48.910Z,4.30
2023-05-09T12:30:52.789Z,4.90
2023-05-09T12:31:55.986Z,5.30
2023-05-09T12:33:00.214Z,4.90
2023-05-09T12:34:03.957Z,4.30
2023-05-09T12:35:11.149Z,4.73
2023-05-09T12:36:16.106Z,3.90
2023-05-09T12:37:20.617Z,4.80
2023-05-09T12:38:24.589Z,4.50
2023-05-09T12:39:29.352Z,4.90
2023-05-09T12:40:31.995Z,4.10
2023-05-09T12:41:43.869Z,7.30
2023-05-09T12:42:59.929Z,4.90
2023-05-09T12:44:03.521Z,5.17
2023-05-09T12:45:09.908Z,6.13
2023-05-09T12:46:13.516Z,4.33
2023-05-09T12:47:16.938Z,4.20
2023-05-09T12:48:24.185Z,4.60
2023-05-09T12:49:28.323Z,4.30
2023-05-09T12:50:35.973Z,4.40
2023-05-09T12:51:49.138Z,4.20
2023-05-09T12:53:02.477Z,4.43
2023-05-09T12:54:11.036Z,6.73
2023-05-09T12:55:15.999Z,4.30
2023-05-09T12:56:23.033Z,5.23
2023-05-09T12:57:31.386Z,4.23
2023-05-09T12:58:49.268Z,4.40
2023-05-09T12:59:52.678Z,3.97
2023-05-09T13:00:55.178Z,4.40
2023-05-09T13:02:00.064Z,4.30
2023-05-09T13:03:04.468Z,4.30
2023-05-09T13:04:09.556Z,4.63
2023-05-09T13:05:16.254Z,4.20
2023-05-09T13:06:19.203Z,4.53
2023-05-09T13:07:22.729Z,4.73
2023-05-09T13:08:25.425Z,4.37
2023-05-09T13:09:29.749Z,4.37
2023-05-09T13:10:33.904Z,4.43
2023-05-09T13:11:38.757Z,4.17
2023-05-09T13:12:48.193Z,5.57
2023-05-09T13:13:51.651Z,4.10
2023-05-09T13:14:54.156Z,3.80
2023-05-09T13:15:57.651Z,5.27
2023-05-09T13:17:01.041Z,6.70
2023-05-09T13:18:04.740Z,4.40
2023-05-09T13:19:07.371Z,4.07
2023-05-09T13:20:10.887Z,4.20
2023-05-09T13:21:13.347Z,3.90
2023-05-09T13:22:17.572Z,8.37
2023-05-09T13:23:22.314Z,6.03
2023-05-09T13:24:25.844Z,3.97
2023-05-09T13:25:28.942Z,4.13
2023-05-09T13:26:34.085Z,4.80
2023-05-09T13:27:37.920Z,4.90
2023-05-09T13:28:41.430Z,4.77
2023-05-09T13:29:44.885Z,5.07
2023-05-09T13:30:47.621Z,4.10
2023-05-09T13:31:51.403Z,7.20
2023-05-09T13:32:53.825Z,4.50
2023-05-09T13:33:57.300Z,4.27
2023-05-09T13:34:59.694Z,4.33
2023-05-09T13:36:03.966Z,5.33
2023-05-09T13:37:06.426Z,7.57
2023-05-09T13:38:09.803Z,5.27
2023-05-09T13:39:13.646Z,3.50
2023-05-09T13:40:16.468Z,4.83
2023-05-09T13:41:24.032Z,4.53
2023-05-09T13:42:29.022Z,3.67
2023-05-09T13:43:31.487Z,4.57
2023-05-09T13:44:34.874Z,4.47
2023-05-09T13:45:37.264Z,4.77
2023-05-09T13:46:40.896Z,5.87
2023-05-09T13:47:43.755Z,4.70
2023-05-09T13:48:47.841Z,3.90
2023-05-09T13:49:50.617Z,3.97
2023-05-09T13:50:54.053Z,4.40
2023-05-09T13:51:57.887Z,4.03
2023-05-09T13:53:01.488Z,4.03
2023-05-09T13:54:08.683Z,3.97
2023-05-09T13:55:12.097Z,3.83
2023-05-09T13:56:14.678Z,4.33
2023-05-09T13:57:18.099Z,4.37
2023-05-09T13:58:22.882Z,4.47
2023-05-09T13:59:26.508Z,4.53
2023-05-09T14:00:29.065Z,3.67
2023-05-09T14:01:32.411Z,3.93
2023-05-09T14:02:34.894Z,5.80
2023-05-09T14:03:38.817Z,5.20
2023-05-09T14:04:42.856Z,4.17
2023-05-09T14:05:46.436Z,4.53
2023-05-09T14:06:50.225Z,4.30
2023-05-09T14:07:54.133Z,5.13
2023-05-09T14:08:56.711Z,4.57
2023-05-09T14:11:09.776Z,4.70
2023-05-09T14:12:15.385Z,4.93
2023-05-09T14:13:19.270Z,4.03
2023-05-09T14:14:25.625Z,4.00
2023-05-09T14:15:29.599Z,4.70
2023-05-09T14:16:32.191Z,4.27
2023-05-09T14:17:35.680Z,4.40
2023-05-09T14:18:39.089Z,4.50